Terminal Aerodrome Forecast
Issued by NWS

Home | Current Version | Previous Version | Text Only | Print | Product List | Glossary On
Versions: 1 2 3 4 5 6 7 8 9 10 11 12 13 14 15 16 17 18 19 20 21 22 23 24 25 26 27 28 29 30 31 32 33 34 35 36 37 38 39 40
261
FTUS43 KGLD 281143 AAB
TAFMCK
TAF AMD
KMCK 281143Z 2812/2912 11007KT 5SM -RA BR OVC008
     FM281500 12008KT 3SM -RA BR OVC003
     FM282200 08012KT 3SM SHRA OVC008
     FM290300 06012KT 2SM RA OVC003
     FM290900 03011KT 2SM RA BR OVC003=

USA.gov is the U.S. government's official web portal to all federal, state and local government web resources and services.